ENRA

Mo i Rana , Røssvoll Airport

Mo i Rana, Norway
METAR ENRA 231350Z 07014KT 9999 VCSH FEW030 BKN045 M05/M11 Q1030
Observed Flight Rules
Feb-23 @ 13:50 UTC (45 minutes ago) Visual Flight Rules
Wind Visibility Clouds
70° at 14 knots 10,000+ meters
  • Few at 3,000' AGL
  • Broken at 4,500' AGL
Temperatures Readings
Current -5°C / 23°F
Dewpoint -11°C / 12°F
Humidity 63%
Altimeter 30.41" Hg
Pressure 1030 hPa
Elevation 70
METAR ENRA 231350Z 07014KT 9999 VCSH FEW030 BKN045 M05/M11 Q1030
Observed Flight Rules
Feb-23 @ 13:50 UTC
(45 minutes ago)
VFR
Wind Visibility
70° at 14 knots 10,000+ meters
Clouds
  • Few at 3,000' AGL
  • Broken at 4,500' AGL
Temperature Dewpoint
-5°C / 23°F -11°C / 12°F
Humidity Altimeter Pressure
63% 30.41" Hg 1030 hPa